Time;durP1;ratioP1;P1;durP2;ratioP2;P2;SDS_P1;SDS_P2;PMS_P1;PMS_P2;Temp;Humidity;BMP_temperature;BMP_pressure;BME280_temperature;BME280_humidity;BME280_pressure;Samples;Min_cycle;Max_cycle;Signal;HPM_P1;HPM_P2
2022/12/06 00:01:58;;;;;;;2.70;1.23;;;;;;;18.82;40.86;101945.63;5026379;28;20025;-70
2022/12/06 00:04:23;;;;;;;5.10;1.27;;;;;;;18.79;40.66;101940.53;5041786;28;20044;-70
2022/12/06 00:06:51;;;;;;;3.30;1.50;;;;;;;18.79;40.73;101940.53;5012806;28;20036;-70
2022/12/06 00:09:23;;;;;;;3.70;1.60;;;;;;;18.77;40.67;101939.78;5035303;28;20401;-68
2022/12/06 00:11:49;;;;;;;3.75;1.60;;;;;;;18.74;40.97;101934.69;5036146;28;20045;-69
2022/12/06 00:14:15;;;;;;;2.53;1.35;;;;;;;18.76;40.84;101944.22;5021450;28;20060;-68
2022/12/06 00:16:40;;;;;;;3.33;1.52;;;;;;;18.73;40.86;101939.13;5034851;28;20037;-69
2022/12/06 00:19:06;;;;;;;2.47;1.27;;;;;;;18.69;40.53;101940.28;5041580;28;20044;-71
2022/12/06 00:21:34;;;;;;;4.75;1.60;;;;;;;18.73;40.76;101948.88;5024148;28;20116;-72
2022/12/06 00:24:02;;;;;;;2.97;1.20;;;;;;;18.65;40.69;101939.66;5039002;28;20127;-69
2022/12/06 00:26:28;;;;;;;5.07;1.48;;;;;;;18.72;40.54;101949.81;5034915;28;20118;-73
2022/12/06 00:28:56;;;;;;;3.25;1.40;;;;;;;18.66;40.44;101940.50;5032218;28;20127;-68
2022/12/06 00:31:24;;;;;;;3.08;1.40;;;;;;;18.68;40.67;101941.25;5040745;28;20060;-68
2022/12/06 00:33:49;;;;;;;3.00;1.50;;;;;;;18.63;40.35;101933.63;5019078;28;20037;-69
2022/12/06 00:36:18;;;;;;;2.90;1.50;;;;;;;18.63;40.79;101936.25;5001736;28;20057;-70
2022/12/06 00:38:44;;;;;;;2.80;1.30;;;;;;;18.64;40.69;101937.09;5021118;28;20088;-67
2022/12/06 00:41:15;;;;;;;3.15;1.40;;;;;;;18.62;40.77;101931.09;5028756;28;20030;-73
2022/12/06 00:43:42;;;;;;;3.97;1.50;;;;;;;18.62;40.84;101942.47;5018516;28;20037;-68
2022/12/06 00:46:09;;;;;;;2.92;1.33;;;;;;;18.59;40.55;101934.75;4998890;28;20033;-72
2022/12/06 00:48:35;;;;;;;2.42;1.17;;;;;;;18.57;40.46;101935.84;5006943;28;20025;-68
2022/12/06 00:51:00;;;;;;;2.88;1.40;;;;;;;18.59;40.61;101932.13;5016164;28;20033;-68
2022/12/06 00:53:26;;;;;;;4.13;1.45;;;;;;;18.57;40.79;101933.19;5012217;28;20030;-69
2022/12/06 00:55:54;;;;;;;2.80;1.42;;;;;;;18.57;40.64;101935.84;5004908;28;20033;-68
2022/12/06 00:58:20;;;;;;;2.75;1.40;;;;;;;18.57;40.91;101938.47;5014647;28;20444;-68
2022/12/06 01:00:45;;;;;;;2.38;1.20;;;;;;;18.50;40.97;101927.47;5017588;28;20063;-68
2022/12/06 01:03:10;;;;;;;2.70;1.20;;;;;;;18.60;40.85;101938.28;5021360;28;20033;-68
2022/12/06 01:05:44;;;;;;;3.03;1.63;;;;;;;18.54;40.60;101934.22;5002360;28;20026;-74
2022/12/06 01:08:10;;;;;;;2.57;1.40;;;;;;;18.55;40.54;101932.44;5020805;28;20040;-68
2022/12/06 01:10:36;;;;;;;2.63;1.20;;;;;;;18.58;40.71;101940.16;5002757;28;20033;-68
2022/12/06 01:13:03;;;;;;;2.88;1.48;;;;;;;18.53;40.53;101934.34;5005626;28;20096;-68
2022/12/06 01:15:28;;;;;;;2.78;1.27;;;;;;;18.55;40.72;101938.56;5020740;28;20516;-68
2022/12/06 01:17:53;;;;;;;3.10;1.40;;;;;;;18.56;40.74;101945.53;5007350;28;20038;-68
2022/12/06 01:20:19;;;;;;;2.90;1.35;;;;;;;18.55;40.75;101943.00;5017751;28;20038;-71
2022/12/06 01:22:44;;;;;;;2.88;1.27;;;;;;;18.54;40.85;101941.31;5012667;28;20033;-68
2022/12/06 01:25:09;;;;;;;2.90;1.30;;;;;;;18.54;40.73;101941.31;5008317;28;20037;-68
2022/12/06 01:27:35;;;;;;;2.85;1.30;;;;;;;18.48;40.68;101940.78;5014145;28;20470;-67
2022/12/06 01:30:00;;;;;;;2.97;1.17;;;;;;;18.50;40.76;101940.69;5012939;28;20033;-74
2022/12/06 01:32:27;;;;;;;2.60;1.20;;;;;;;18.47;40.45;101938.25;5006103;28;20077;-72
2022/12/06 01:34:53;;;;;;;2.30;1.13;;;;;;;18.46;40.39;101937.38;5020608;28;20493;-68
2022/12/06 01:37:18;;;;;;;2.63;1.48;;;;;;;18.47;40.64;101941.72;5017477;28;20104;-69
2022/12/06 01:39:45;;;;;;;2.42;1.20;;;;;;;18.44;40.46;101930.53;5024165;28;20049;-70
2022/12/06 01:42:11;;;;;;;2.60;1.20;;;;;;;18.48;40.31;101951.34;5034920;28;20037;-69
2022/12/06 01:44:45;;;;;;;2.80;1.35;;;;;;;18.46;40.43;101945.28;5035410;28;20937;-72
2022/12/06 01:47:22;;;;;;;2.08;1.10;;;;;;;18.44;40.39;101944.56;5037371;28;20382;-68
2022/12/06 01:49:56;;;;;;;2.33;1.00;;;;;;;18.42;40.52;101942.94;5032318;28;20029;-69
2022/12/06 01:52:27;;;;;;;2.45;1.10;;;;;;;18.42;40.48;101935.03;5042460;28;20091;-70
2022/12/06 01:54:52;;;;;;;2.47;1.10;;;;;;;18.41;40.35;101928.91;5039454;28;20093;-69
2022/12/06 01:57:18;;;;;;;2.70;1.10;;;;;;;18.39;40.52;101928.19;5029501;28;20040;-68
2022/12/06 01:59:44;;;;;;;2.78;1.40;;;;;;;18.39;40.54;101924.66;5034090;28;20509;-68
2022/12/06 02:02:10;;;;;;;2.80;1.20;;;;;;;18.41;40.35;101931.56;5028078;28;20548;-68
2022/12/06 02:04:36;;;;;;;2.60;1.08;;;;;;;18.39;40.72;101932.59;5033340;28;20052;-70
2022/12/06 02:07:02;;;;;;;3.00;1.30;;;;;;;18.39;40.50;101933.44;5029723;28;20037;-68
2022/12/06 02:09:28;;;;;;;2.63;1.10;;;;;;;18.39;40.67;101944.00;5038055;28;20473;-68
2022/12/06 02:11:54;;;;;;;2.38;1.20;;;;;;;18.39;40.84;101937.88;5032352;28;20033;-68
2022/12/06 02:14:26;;;;;;;2.67;1.40;;;;;;;18.37;40.51;101929.22;5041641;28;21052;-74
2022/12/06 02:17:03;;;;;;;2.63;1.20;;;;;;;18.39;40.38;101936.09;5039466;28;20275;-68
2022/12/06 02:19:51;;;;;;;2.83;1.20;;;;;;;18.38;40.74;101929.09;5024119;28;20064;-69
2022/12/06 02:22:54;;;;;;;1.90;1.00;;;;;;;18.39;40.70;101935.22;5019837;28;20091;-69
2022/12/06 02:25:35;;;;;;;2.70;1.13;;;;;;;18.36;40.47;101928.38;5026063;28;20033;-72
2022/12/06 02:28:13;;;;;;;1.95;1.00;;;;;;;18.36;40.62;101928.38;5029118;28;20029;-71
2022/12/06 02:31:01;;;;;;;1.70;0.88;;;;;;;18.32;40.70;101921.59;5043213;28;20037;-69
2022/12/06 02:34:01;;;;;;;2.63;1.25;;;;;;;18.32;40.54;101926.88;5039360;28;20040;-70
2022/12/06 02:36:32;;;;;;;2.20;1.05;;;;;;;18.31;40.68;101919.91;5026145;28;20494;-68
2022/12/06 02:39:01;;;;;;;3.22;1.00;;;;;;;18.31;40.50;101926.03;5029363;28;20067;-68
2022/12/06 02:41:32;;;;;;;2.42;1.10;;;;;;;18.29;40.24;101919.16;5031942;28;20084;-72
2022/12/06 02:44:03;;;;;;;2.60;1.10;;;;;;;18.28;40.34;101915.66;5023320;28;20033;-69
2022/12/06 02:46:33;;;;;;;1.95;1.05;;;;;;;18.28;40.40;101918.31;5024873;28;20033;-71
2022/12/06 02:49:01;;;;;;;1.88;0.93;;;;;;;18.27;40.56;101915.78;5026973;28;20044;-69
2022/12/06 02:51:29;;;;;;;2.10;1.08;;;;;;;18.29;40.48;101921.78;5035658;28;20037;-68
2022/12/06 02:53:56;;;;;;;2.42;1.10;;;;;;;18.27;40.42;101918.41;5039225;28;20064;-68
2022/12/06 02:56:23;;;;;;;4.65;1.13;;;;;;;18.28;40.31;101920.94;5028524;28;20030;-70
2022/12/06 02:58:48;;;;;;;2.22;1.02;;;;;;;18.26;40.49;101916.72;5023317;28;20083;-68
2022/12/06 03:01:20;;;;;;;1.88;1.00;;;;;;;18.25;40.40;101915.88;5030442;28;20037;-68
2022/12/06 03:04:06;;;;;;;2.30;1.30;;;;;;;18.26;40.46;101920.22;5032526;28;20033;-69
2022/12/06 03:07:00;;;;;;;2.08;1.02;;;;;;;18.26;40.43;101916.72;5028595;28;20871;-68
2022/12/06 03:09:44;;;;;;;2.15;1.00;;;;;;;18.23;40.58;101908.97;5018914;28;20037;-69
2022/12/06 03:12:44;;;;;;;3.15;1.10;;;;;;;18.24;40.58;101910.69;5022980;28;20890;-74
2022/12/06 03:15:34;;;;;;;2.25;1.08;;;;;;;18.25;40.51;101920.31;5009819;28;20052;-73
2022/12/06 03:18:30;;;;;;;2.22;1.10;;;;;;;18.23;40.37;101916.91;5031428;28;20029;-71
2022/12/06 03:21:03;;;;;;;1.88;0.98;;;;;;;18.23;40.51;101920.41;5031089;28;20136;-69
2022/12/06 03:23:35;;;;;;;2.65;1.10;;;;;;;18.22;40.33;101921.34;5027163;28;20048;-71
2022/12/06 03:26:02;;;;;;;2.78;1.20;;;;;;;18.22;40.42;101925.78;5031292;28;20040;-72
2022/12/06 03:28:29;;;;;;;1.83;0.90;;;;;;;18.20;40.52;101917.09;5027082;28;20175;-68
2022/12/06 03:30:59;;;;;;;1.90;0.90;;;;;;;18.20;40.36;101923.25;5041799;28;20540;-68
2022/12/06 03:33:28;;;;;;;3.28;1.02;;;;;;;18.20;40.56;101925.00;5032066;28;20033;-68
2022/12/06 03:35:55;;;;;;;3.17;1.20;;;;;;;18.21;40.49;101921.44;5031073;28;21055;-71
2022/12/06 03:38:34;;;;;;;3.08;1.20;;;;;;;18.17;40.44;101918.16;5037127;28;20390;-69
2022/12/06 03:41:04;;;;;;;2.28;1.10;;;;;;;18.19;40.52;101918.06;5041439;28;20037;-67
2022/12/06 03:43:29;;;;;;;2.00;1.00;;;;;;;18.19;40.53;101924.19;5028970;28;20037;-73
2022/12/06 03:46:18;;;;;;;2.03;1.02;;;;;;;18.19;40.38;101923.34;5032794;28;20036;-71
2022/12/06 03:49:00;;;;;;;2.70;1.10;;;;;;;18.17;40.46;101919.97;5022325;28;20511;-69
2022/12/06 03:51:28;;;;;;;3.78;1.40;;;;;;;18.18;40.56;101924.28;5023112;28;20034;-68
2022/12/06 03:53:58;;;;;;;1.70;1.00;;;;;;;18.13;40.61;101901.69;5035237;28;20029;-71
2022/12/06 03:56:24;;;;;;;1.95;0.90;;;;;;;18.14;40.49;101913.09;5021918;28;20489;-71
2022/12/06 03:58:50;;;;;;;2.95;1.30;;;;;;;18.15;40.47;101919.19;5036762;28;20032;-69
2022/12/06 04:01:15;;;;;;;3.40;1.30;;;;;;;18.13;40.38;101917.53;5026647;28;20064;-70
2022/12/06 04:03:41;;;;;;;3.95;1.40;;;;;;;18.15;40.25;101924.47;5021768;28;20108;-75
2022/12/06 04:06:07;;;;;;;1.92;1.10;;;;;;;18.14;40.33;101915.72;5038403;28;20393;-72
2022/12/06 04:08:33;;;;;;;2.85;1.30;;;;;;;18.10;40.37;101914.22;5041280;28;20473;-67
2022/12/06 04:10:58;;;;;;;2.95;1.27;;;;;;;18.12;40.27;101913.19;5028003;28;20083;-73
2022/12/06 04:13:24;;;;;;;3.08;1.27;;;;;;;18.13;40.46;101916.66;5035407;28;20088;-69
2022/12/06 04:15:55;;;;;;;3.85;1.33;;;;;;;18.10;40.47;101907.16;5021874;28;20072;-69
2022/12/06 04:18:21;;;;;;;2.90;1.27;;;;;;;18.11;40.47;101914.13;5021669;28;20030;-69
2022/12/06 04:23:41;;;;;;;2.85;1.20;;;;;;;18.12;40.33;101913.19;5028621;28;20044;-69
2022/12/06 04:26:09;;;;;;;3.33;1.25;;;;;;;18.11;40.38;101923.81;5039334;28;20028;-68
2022/12/06 04:39:30;;;;;;;2.57;1.27;;;;;;;18.10;40.43;101923.00;5039798;28;20036;-69
2022/12/06 04:44:40;;;;;;;3.75;1.35;;;;;;;18.07;40.20;101923.19;5022833;28;20032;-73
2022/12/06 04:47:06;;;;;;;3.88;1.33;;;;;;;18.06;40.57;101921.47;5032104;28;20058;-70
2022/12/06 04:49:32;;;;;;;3.40;1.20;;;;;;;18.04;40.51;101920.75;5031699;28;20029;-70
2022/12/06 04:51:58;;;;;;;2.40;1.38;;;;;;;18.04;40.34;101922.50;5020608;28;20044;-69
2022/12/06 04:54:23;;;;;;;3.33;1.20;;;;;;;18.06;40.39;101918.84;5027292;28;20485;-69
2022/12/06 04:56:49;;;;;;;2.65;1.20;;;;;;;18.03;40.13;101915.56;5002530;28;20046;-70
2022/12/06 04:59:14;;;;;;;3.40;1.30;;;;;;;18.05;40.25;101918.94;5029897;28;20029;-69
2022/12/06 05:01:39;;;;;;;3.70;1.55;;;;;;;18.03;40.21;101911.13;5030956;28;20111;-67
2022/12/06 05:04:05;;;;;;;3.28;1.20;;;;;;;18.02;40.54;101914.69;5040823;28;20021;-73
2022/12/06 05:06:30;;;;;;;3.08;1.30;;;;;;;18.03;40.38;101919.03;5018496;28;20037;-67
2022/12/06 05:08:55;;;;;;;8.40;3.20;;;;;;;18.01;40.41;101915.66;5034206;28;20037;-69
2022/12/06 05:11:20;;;;;;;3.10;1.30;;;;;;;18.00;40.49;101911.31;5034623;28;20063;-69
2022/12/06 05:13:46;;;;;;;3.38;1.35;;;;;;;18.01;40.31;101909.53;5040725;28;20037;-68
2022/12/06 05:16:11;;;;;;;3.97;1.55;;;;;;;18.02;40.48;101911.22;5029248;28;20029;-72
2022/12/06 05:18:37;;;;;;;3.65;1.38;;;;;;;17.99;40.27;101914.94;5034678;28;20489;-73
2022/12/06 05:21:05;;;;;;;3.08;1.05;;;;;;;17.98;40.22;101902.66;5039909;28;20110;-72
2022/12/06 05:23:31;;;;;;;3.22;1.40;;;;;;;17.98;40.40;101901.84;5033225;28;20142;-70
2022/12/06 05:25:59;;;;;;;2.50;1.10;;;;;;;18.00;40.41;101910.47;5035612;28;20030;-73
2022/12/06 05:28:24;;;;;;;3.35;1.30;;;;;;;18.01;40.25;101912.16;5020899;28;20041;-68
2022/12/06 05:30:49;;;;;;;2.92;1.65;;;;;;;17.97;40.61;101906.25;5027649;28;20041;-70
2022/12/06 05:33:15;;;;;;;3.53;1.30;;;;;;;18.00;40.45;101913.97;5038680;28;20033;-69
2022/12/06 05:35:40;;;;;;;3.30;1.20;;;;;;;18.02;40.49;101911.22;5032639;28;20294;-68
2022/12/06 05:38:05;;;;;;;2.45;1.00;;;;;;;17.98;39.99;101905.31;5024147;28;20278;-69
2022/12/06 05:40:30;;;;;;;3.25;1.33;;;;;;;18.00;40.57;101911.31;5020717;28;20116;-69
2022/12/06 05:42:56;;;;;;;4.07;1.45;;;;;;;17.97;40.28;101902.75;5032307;28;20534;-69
2022/12/06 05:45:22;;;;;;;3.13;1.23;;;;;;;17.98;40.43;101907.09;5027230;28;20037;-68
2022/12/06 05:47:47;;;;;;;3.85;1.30;;;;;;;17.99;40.17;101914.06;5021102;28;20033;-69
2022/12/06 05:50:13;;;;;;;2.70;1.17;;;;;;;17.97;40.45;101908.03;5029066;28;20866;-68
2022/12/06 05:52:38;;;;;;;3.33;1.30;;;;;;;17.99;40.33;101906.16;5039330;28;20037;-68
2022/12/06 05:55:03;;;;;;;3.05;1.13;;;;;;;18.02;40.29;101905.94;5026156;28;20857;-68
2022/12/06 05:57:29;;;;;;;2.70;1.00;;;;;;;18.07;40.59;101917.03;5034442;28;20033;-68
2022/12/06 05:59:54;;;;;;;2.67;1.03;;;;;;;18.07;40.72;101911.78;5026081;28;20086;-70
2022/12/06 06:02:19;;;;;;;2.38;0.90;;;;;;;18.10;40.74;101911.56;5039702;28;20266;-69
2022/12/06 06:04:45;;;;;;;3.05;1.00;;;;;;;18.14;40.66;101913.09;5026047;28;20026;-68
2022/12/06 06:07:10;;;;;;;3.80;1.13;;;;;;;18.17;40.42;101909.41;5025240;28;20816;-68
2022/12/06 06:09:35;;;;;;;2.53;0.95;;;;;;;18.23;40.34;101911.63;5031139;28;20266;-67
2022/12/06 06:12:00;;;;;;;2.38;1.10;;;;;;;18.25;40.67;101915.88;5028511;28;20096;-72
2022/12/06 06:14:26;;;;;;;2.55;0.95;;;;;;;18.28;40.64;101913.03;5036739;28;20029;-68
2022/12/06 06:16:51;;;;;;;3.15;1.40;;;;;;;18.31;40.50;101915.47;5040349;28;20067;-69
2022/12/06 06:19:17;;;;;;;2.80;0.97;;;;;;;18.33;40.45;101907.47;5036787;28;20037;-70
2022/12/06 06:21:42;;;;;;;2.47;1.00;;;;;;;18.37;40.50;101914.22;5030175;28;20823;-71
2022/12/06 06:24:07;;;;;;;4.25;1.10;;;;;;;18.39;40.26;101916.75;5041212;28;20036;-68
2022/12/06 06:26:33;;;;;;;2.38;0.98;;;;;;;18.38;40.47;101913.28;5033422;28;20040;-69
2022/12/06 06:28:58;;;;;;;2.43;0.90;;;;;;;18.43;40.11;101916.44;5042710;28;20029;-68
2022/12/06 06:31:23;;;;;;;2.22;0.85;;;;;;;18.45;40.31;101916.34;5038658;28;20877;-71
2022/12/06 06:33:49;;;;;;;2.40;0.90;;;;;;;18.47;40.44;101914.47;5039110;28;20393;-69
2022/12/06 06:36:14;;;;;;;2.13;0.90;;;;;;;18.46;40.55;101907.50;5028974;28;20512;-67
2022/12/06 06:38:39;;;;;;;3.03;0.90;;;;;;;18.47;40.31;101917.97;5033562;28;20095;-67
2022/12/06 06:41:05;;;;;;;2.58;1.02;;;;;;;18.48;40.41;101917.03;5041791;28;20123;-71
2022/12/06 06:43:31;;;;;;;2.85;0.98;;;;;;;18.51;40.31;101915.94;5037012;28;20029;-68
2022/12/06 06:45:59;;;;;;;2.75;1.00;;;;;;;18.51;40.22;101908.03;5031838;28;20074;-67
2022/12/06 06:48:26;;;;;;;2.28;1.10;;;;;;;18.55;40.37;101916.59;5038450;28;20381;-68
2022/12/06 06:50:51;;;;;;;1.95;0.90;;;;;;;18.58;40.12;101909.34;5032852;28;20030;-68
2022/12/06 06:53:18;;;;;;;2.25;0.90;;;;;;;18.60;40.27;101910.06;5029506;28;20033;-72
2022/12/06 06:55:44;;;;;;;2.63;0.95;;;;;;;18.60;40.04;101903.94;5035031;28;20611;-72
2022/12/06 06:58:09;;;;;;;2.00;0.90;;;;;;;18.63;40.34;101899.31;5038566;28;20041;-68
2022/12/06 07:00:35;;;;;;;2.17;0.90;;;;;;;18.64;40.29;101901.00;5025074;28;20389;-69
2022/12/06 07:03:01;;;;;;;2.75;1.00;;;;;;;18.59;40.11;101884.59;5023004;28;20120;-68
2022/12/06 07:05:26;;;;;;;2.97;0.90;;;;;;;18.68;40.10;101899.84;5026592;28;20036;-68
2022/12/06 07:07:52;;;;;;;1.63;0.80;;;;;;;18.68;40.19;101902.47;5031161;28;20036;-67
2022/12/06 07:10:18;;;;;;;2.60;1.10;;;;;;;18.67;39.86;101899.94;5037488;28;20048;-68
2022/12/06 07:12:43;;;;;;;2.60;1.10;;;;;;;18.72;40.08;101908.38;5031168;28;20034;-72
2022/12/06 07:15:10;;;;;;;3.13;1.00;;;;;;;18.74;40.23;101908.28;5041691;28;20039;-69
2022/12/06 07:17:35;;;;;;;2.80;1.08;;;;;;;18.74;40.48;101905.66;5040714;28;20262;-69
2022/12/06 07:20:00;;;;;;;2.20;1.08;;;;;;;18.75;40.68;101905.53;5038032;28;20047;-69
2022/12/06 07:22:26;;;;;;;2.93;1.00;;;;;;;18.78;40.42;101907.97;5042168;28;20033;-70
2022/12/06 07:24:51;;;;;;;3.00;1.00;;;;;;;18.81;41.07;101914.88;5037801;28;20746;-68
2022/12/06 07:27:16;;;;;;;1.93;0.87;;;;;;;18.79;40.74;101909.69;5025346;28;20313;-67
2022/12/06 07:29:41;;;;;;;3.70;1.00;;;;;;;18.79;40.54;101904.41;5028106;28;20262;-67
2022/12/06 07:32:07;;;;;;;2.67;1.00;;;;;;;18.79;40.73;101911.50;5030309;28;20273;-68
2022/12/06 07:34:32;;;;;;;5.07;1.30;;;;;;;18.80;40.44;101911.38;5031640;28;20033;-70
2022/12/06 07:36:57;;;;;;;2.87;1.03;;;;;;;18.81;40.80;101920.16;5037648;28;20044;-70
2022/12/06 07:39:23;;;;;;;2.40;1.00;;;;;;;18.85;40.69;101917.22;5030443;28;20630;-69
2022/12/06 07:47:15;;;;;;;2.50;1.00;;;;;;;18.84;40.53;101912.88;5023206;28;20040;-66
2022/12/06 07:49:41;;;;;;;2.72;0.95;;;;;;;18.88;40.66;101924.06;5042331;28;20037;-68
2022/12/06 07:52:06;;;;;;;2.20;1.02;;;;;;;18.84;40.35;101918.16;5041898;28;20071;-68
2022/12/06 07:54:31;;;;;;;1.92;0.88;;;;;;;18.88;40.77;101929.38;5041915;28;20029;-67
2022/12/06 07:56:57;;;;;;;1.93;0.90;;;;;;;18.85;40.49;101919.88;5032895;28;20063;-71
2022/12/06 07:59:23;;;;;;;2.25;0.95;;;;;;;18.88;40.58;101929.38;5022079;28;20258;-67
2022/12/06 08:01:51;;;;;;;2.22;0.90;;;;;;;18.88;40.75;101925.88;5028528;28;20037;-70
2022/12/06 08:04:17;;;;;;;2.42;1.00;;;;;;;18.92;40.57;101928.22;5012405;28;20103;-69
2022/12/06 08:06:42;;;;;;;3.03;1.00;;;;;;;18.94;40.89;101934.22;5031704;28;20039;-71
2022/12/06 08:09:08;;;;;;;2.85;1.10;;;;;;;18.98;40.84;101932.25;5030930;28;20025;-69
2022/12/06 08:11:34;;;;;;;2.17;1.13;;;;;;;18.99;40.99;101936.56;5041919;28;20036;-70
2022/12/06 08:13:59;;;;;;;2.65;1.00;;;;;;;19.02;40.84;101936.38;5035453;28;20156;-68
2022/12/06 08:16:24;;;;;;;4.10;1.05;;;;;;;18.95;40.84;101925.38;5029369;28;20036;-69
2022/12/06 08:18:51;;;;;;;2.17;0.90;;;;;;;19.01;40.77;101938.16;5027543;28;20231;-68
2022/12/06 08:21:17;;;;;;;3.17;1.08;;;;;;;19.01;40.96;101937.34;5034444;28;20029;-68
2022/12/06 08:23:42;;;;;;;3.03;1.00;;;;;;;19.01;40.71;101939.97;5036305;28;20032;-70
2022/12/06 08:26:12;;;;;;;2.05;0.80;;;;;;;19.00;40.91;101939.09;5033102;28;20076;-68
2022/12/06 08:28:38;;;;;;;3.03;1.05;;;;;;;19.03;40.88;101933.63;5032698;28;20037;-68
2022/12/06 08:31:09;;;;;;;2.90;0.90;;;;;;;19.04;40.84;101937.09;5031100;28;20405;-68
2022/12/06 08:33:35;;;;;;;2.70;1.35;;;;;;;19.03;40.94;101930.97;5030276;28;20925;-69
2022/12/06 08:36:00;;;;;;;3.17;1.13;;;;;;;19.05;40.40;101937.97;5037056;28;20056;-71
2022/12/06 08:38:27;;;;;;;2.47;0.90;;;;;;;19.07;40.75;101930.78;5035680;28;20040;-69
2022/12/06 08:40:52;;;;;;;2.70;0.90;;;;;;;19.10;40.78;101939.31;5039883;28;20039;-71
2022/12/06 08:43:17;;;;;;;2.43;1.03;;;;;;;19.09;40.88;101940.28;5037238;28;20032;-69
2022/12/06 08:45:42;;;;;;;1.85;0.95;;;;;;;19.12;40.93;101939.22;5027274;28;20318;-75
2022/12/06 08:48:08;;;;;;;5.28;1.80;;;;;;;19.12;40.85;101947.16;5025068;28;20113;-70
2022/12/06 08:50:33;;;;;;;2.95;1.08;;;;;;;19.12;40.65;101948.00;5023890;28;20071;-72
2022/12/06 08:52:58;;;;;;;3.67;0.88;;;;;;;19.10;40.83;101939.31;5021365;28;20697;-70
2022/12/06 08:55:23;;;;;;;2.63;1.00;;;;;;;19.09;40.85;101937.66;5023367;28;20033;-70
2022/12/06 08:57:49;;;;;;;2.03;0.80;;;;;;;19.13;40.94;101938.28;5027460;28;20289;-72
2022/12/06 09:00:15;;;;;;;3.03;1.00;;;;;;;19.13;40.89;101943.56;5034240;28;20029;-69
2022/12/06 09:02:41;;;;;;;2.53;0.98;;;;;;;19.12;40.78;101945.38;5028819;28;20282;-67
2022/12/06 09:05:06;;;;;;;3.00;0.98;;;;;;;19.14;40.63;101955.84;5022029;28;20087;-71
2022/12/06 09:07:32;;;;;;;5.38;1.15;;;;;;;19.12;40.63;101948.00;5036438;28;20480;-70
2022/12/06 09:09:57;;;;;;;2.80;0.90;;;;;;;19.16;40.86;101961.84;5031034;28;20035;-69
2022/12/06 09:12:24;;;;;;;3.07;0.80;;;;;;;19.15;40.81;101960.16;5019819;28;20060;-66
2022/12/06 09:14:49;;;;;;;3.13;1.00;;;;;;;19.13;40.65;101957.63;5032252;28;20324;-69
2022/12/06 09:17:14;;;;;;;2.60;0.80;;;;;;;19.13;40.87;101954.97;5028265;28;20428;-67
2022/12/06 09:19:40;;;;;;;1.98;0.85;;;;;;;19.17;40.71;101966.19;5021738;28;20095;-69
2022/12/06 09:22:05;;;;;;;2.40;0.93;;;;;;;19.15;40.91;101963.66;5021327;28;20528;-66
2022/12/06 09:24:30;;;;;;;2.33;0.80;;;;;;;19.14;40.54;101961.97;5029848;28;20112;-70
2022/12/06 09:26:56;;;;;;;3.03;1.00;;;;;;;19.16;40.66;101964.50;5020847;28;20540;-71
2022/12/06 09:29:21;;;;;;;2.90;0.90;;;;;;;19.14;40.57;101961.97;5028116;28;20041;-67
2022/12/06 09:31:46;;;;;;;6.30;1.20;;;;;;;19.12;40.77;101966.50;5021037;28;20116;-67
2022/12/06 09:34:12;;;;;;;3.35;0.80;;;;;;;19.12;40.50;101963.00;5031601;28;20037;-67
2022/12/06 09:36:45;;;;;;;1.97;0.87;;;;;;;19.11;40.41;101961.34;5037218;28;20057;-69
2022/12/06 09:39:22;;;;;;;3.72;1.08;;;;;;;19.11;40.56;101962.16;5023335;28;20630;-66
2022/12/06 09:42:05;;;;;;;1.90;0.70;;;;;;;19.11;40.54;101971.91;5028402;28;20029;-67
2022/12/06 09:45:05;;;;;;;4.17;0.97;;;;;;;19.10;40.42;101964.91;5027997;28;20087;-71
2022/12/06 09:47:46;;;;;;;4.25;1.10;;;;;;;19.08;40.43;101957.09;5034147;28;20066;-66
2022/12/06 09:50:39;;;;;;;1.45;0.68;;;;;;;19.11;40.42;101962.16;5024902;28;20026;-66
2022/12/06 09:53:32;;;;;;;2.25;0.90;;;;;;;19.06;40.43;101961.63;5038832;28;20037;-66
2022/12/06 09:56:05;;;;;;;2.78;0.85;;;;;;;19.09;40.25;101969.38;5009446;28;20525;-67
2022/12/06 09:58:30;;;;;;;3.10;1.00;;;;;;;19.09;40.26;101965.84;5038030;28;20417;-67
2022/12/06 10:01:10;;;;;;;4.03;0.90;;;;;;;19.07;40.34;101965.13;5041972;28;20032;-70
2022/12/06 10:03:54;;;;;;;3.22;1.13;;;;;;;19.06;40.30;101969.56;5014396;28;20805;-67
2022/12/06 10:06:21;;;;;;;3.10;0.90;;;;;;;19.03;40.22;101965.31;5023859;28;20042;-71
2022/12/06 10:09:02;;;;;;;3.35;1.00;;;;;;;19.08;40.33;101961.53;5025272;28;20037;-67
2022/12/06 10:11:44;;;;;;;2.63;1.00;;;;;;;19.08;40.64;101964.19;5016848;28;20033;-70
2022/12/06 10:14:52;;;;;;;2.72;0.98;;;;;;;19.06;40.65;101955.50;5011656;28;20047;-70
2022/12/06 10:17:41;;;;;;;3.35;1.25;;;;;;;19.05;40.63;101954.66;5019340;28;20132;-70
2022/12/06 10:20:15;;;;;;;2.60;0.82;;;;;;;19.04;40.82;101952.94;5014217;28;20124;-70
2022/12/06 10:23:00;;;;;;;2.58;1.25;;;;;;;19.05;40.58;101953.81;5028461;28;20065;-68
2022/12/06 10:25:39;;;;;;;3.08;1.10;;;;;;;19.02;40.80;101947.78;5029463;28;20033;-69
2022/12/06 10:28:13;;;;;;;2.92;0.75;;;;;;;19.05;40.69;101948.53;5020552;28;20885;-70
2022/12/06 10:30:44;;;;;;;;;;;;;;;19.13;40.48;101946.22;5027250;28;20048;-68
2022/12/06 10:33:20;;;;;;;2.55;1.17;;;;;;;19.11;40.71;101940.19;5028291;28;19932;-71
2022/12/06 10:36:08;;;;;;;2.45;0.90;;;;;;;19.12;40.65;101941.88;5016935;28;20418;-68
2022/12/06 10:38:58;;;;;;;3.63;1.10;;;;;;;19.12;40.51;101950.66;5017403;28;20044;-69
2022/12/06 10:41:37;;;;;;;4.20;1.10;;;;;;;19.11;40.61;101946.31;5018785;28;20036;-68
2022/12/06 10:44:18;;;;;;;1.92;0.80;;;;;;;19.13;40.55;101952.31;5005323;28;20414;-71
2022/12/06 10:47:03;;;;;;;4.00;1.10;;;;;;;19.13;40.37;101949.69;5018424;28;20128;-66
2022/12/06 10:50:05;;;;;;;7.60;1.00;;;;;;;19.17;40.23;101951.19;5018933;28;20765;-68
2022/12/06 10:52:42;;;;;;;3.85;0.90;;;;;;;19.18;40.66;101946.72;5010723;28;20033;-69
2022/12/06 10:55:08;;;;;;;3.70;0.90;;;;;;;19.18;40.32;101947.59;5020576;28;20040;-70
2022/12/06 10:57:51;;;;;;;3.00;1.00;;;;;;;19.16;40.59;101960.03;5028219;28;20040;-73
2022/12/06 11:00:25;;;;;;;3.22;0.90;;;;;;;19.14;40.15;101943.47;5018077;28;20096;-69
2022/12/06 11:03:09;;;;;;;;;;;;;;;19.25;40.29;101955.09;5021898;28;20067;-69
2022/12/06 11:05:44;;;;;;;3.03;1.05;;;;;;;19.20;40.37;101948.34;5031634;28;20023;-70
2022/12/06 11:08:15;;;;;;;3.83;0.95;;;;;;;19.18;40.41;101952.88;5009180;28;20431;-70
2022/12/06 11:10:43;;;;;;;2.50;0.90;;;;;;;19.18;40.54;101950.25;5023579;28;21067;-65
2022/12/06 11:13:08;;;;;;;3.97;1.10;;;;;;;19.17;40.45;101950.34;5024748;28;20045;-67
2022/12/06 11:15:37;;;;;;;3.03;1.10;;;;;;;19.18;40.19;101944.97;5014085;28;20037;-67
2022/12/06 11:18:12;;;;;;;3.60;0.95;;;;;;;19.17;40.51;101940.63;5019724;28;20294;-68
2022/12/06 11:20:55;;;;;;;4.07;0.80;;;;;;;19.20;40.43;101947.47;5018854;28;20033;-72
2022/12/06 11:23:32;;;;;;;3.28;0.90;;;;;;;19.21;40.38;101949.16;5011320;28;20030;-68
2022/12/06 11:26:14;;;;;;;3.03;0.80;;;;;;;19.21;40.47;101938.59;5023338;28;20052;-72
2022/12/06 11:28:42;;;;;;;2.50;0.80;;;;;;;19.19;40.57;101938.69;5014014;28;20033;-70
2022/12/06 11:31:25;;;;;;;4.32;0.93;;;;;;;19.20;40.67;101936.91;5025479;28;20037;-68
2022/12/06 11:33:51;;;;;;;2.15;0.80;;;;;;;19.20;40.70;101942.19;5014210;28;20419;-70
2022/12/06 11:36:17;;;;;;;3.90;1.27;;;;;;;19.19;40.74;101935.22;5022647;28;20066;-70
2022/12/06 11:38:43;;;;;;;4.93;1.30;;;;;;;19.19;40.60;101935.22;5029085;28;20037;-67
2022/12/06 11:41:16;;;;;;;4.03;0.95;;;;;;;19.18;40.76;101936.16;5027867;28;20492;-69
2022/12/06 11:43:41;;;;;;;3.63;1.00;;;;;;;19.19;40.70;101932.59;5015069;28;20065;-69
2022/12/06 11:46:11;;;;;;;3.05;0.90;;;;;;;19.18;40.61;101920.31;5027298;28;20442;-69
2022/12/06 11:48:37;;;;;;;2.63;0.90;;;;;;;19.18;40.68;101918.53;5023594;28;20120;-71
2022/12/06 11:51:02;;;;;;;3.47;1.00;;;;;;;19.20;40.58;101911.34;5019961;28;20894;-68
2022/12/06 11:53:45;;;;;;;2.40;1.00;;;;;;;19.20;40.54;101915.75;5023558;28;20041;-72
2022/12/06 11:56:25;;;;;;;2.90;0.80;;;;;;;19.21;40.09;101910.38;5026644;28;20082;-72
2022/12/06 11:59:11;;;;;;;3.58;0.90;;;;;;;19.25;40.41;101903.09;5023005;28;20038;-68
2022/12/06 12:01:43;;;;;;;3.63;0.85;;;;;;;19.30;40.48;101903.59;5015859;28;20043;-70